Time;durP1;ratioP1;P1;durP2;ratioP2;P2;SDS_P1;SDS_P2;PMS_P1;PMS_P2;Temp;Humidity;BMP_temperature;BMP_pressure;BME280_temperature;BME280_humidity;BME280_pressure;Samples;Min_cycle;Max_cycle;Signal;HPM_P1;HPM_P2
2022/05/23 00:01:50;;;;;;;;;;;;;;;;;;5002219;28;20008;-61
2022/05/23 00:04:18;;;;;;;;;;;;;;;;;;5025251;28;19953;-61
2022/05/23 00:06:43;;;;;;;;;;;;;;;;;;5002334;28;20003;-61
2022/05/23 00:09:09;;;;;;;;;;;;;;;;;;5023725;28;19916;-61
2022/05/23 00:11:34;;;;;;;;;;;;;;;;;;5022160;28;19925;-62
2022/05/23 00:13:59;;;;;;;;;;;;;;;;;;5022091;28;19968;-63
2022/05/23 00:16:25;;;;;;;;;;;;;;;;;;5024109;28;20030;-62
2022/05/23 00:18:50;;;;;;;;;;;;;;;;;;5025093;28;20495;-63
2022/05/23 00:21:15;;;;;;;;;;;;;;;;;;5021200;28;19975;-62
2022/05/23 00:23:40;;;;;;;;;;;;;;;;;;5024137;28;19925;-62
2022/05/23 00:26:06;;;;;;;;;;;;;;;;;;5008736;28;19927;-61
2022/05/23 00:28:34;;;;;;;;;;;;;;;;;;5023057;28;20527;-63
2022/05/23 00:30:59;;;;;;;;;;;;;;;;;;5026304;28;19970;-62
2022/05/23 00:36:11;;;;;;;;;;;;;;;;;;5023708;28;19925;-61
2022/05/23 00:38:36;;;;;;;;;;;;;;;;;;5022834;28;20478;-63
2022/05/23 00:43:48;;;;;;;;;;;;;;;;;;5021250;28;19921;-62
2022/05/23 00:46:13;;;;;;;;;;;;;;;;;;5027328;28;20667;-62
2022/05/23 00:48:39;;;;;;;;;;;;;;;;;;5025578;28;20024;-63
2022/05/23 00:51:04;;;;;;;;;;;;;;;;;;5008204;28;19950;-61
2022/05/23 00:53:31;;;;;;;;;;;;;;;;;;5030885;28;19921;-62
2022/05/23 00:55:57;;;;;;;;;;;;;;;;;;5023229;28;19935;-63
2022/05/23 00:58:25;;;;;;;;;;;;;;;;;;5023452;28;19928;-62
2022/05/23 01:00:53;;;;;;;;;;;;;;;;;;5024965;28;19917;-62
2022/05/23 01:03:21;;;;;;;;;;;;;;;;;;5028826;28;19920;-63
2022/05/23 01:05:46;;;;;;;;;;;;;;;;;;5025858;28;20042;-60
2022/05/23 01:08:11;;;;;;;;;;;;;;;;;;5026342;28;19953;-61
2022/05/23 01:10:37;;;;;;;;;;;;;;;;;;5023628;28;20364;-61
2022/05/23 01:13:02;;;;;;;;;;;;;;;;;;5025334;28;20051;-61
2022/05/23 01:15:27;;;;;;;;;;;;;;;;;;5026028;28;20291;-61
2022/05/23 01:17:53;;;;;;;;;;;;;;;;;;5026283;28;19920;-62
2022/05/23 01:20:19;;;;;;;;;;;;;;;;;;5006758;28;19927;-61
2022/05/23 01:22:44;;;;;;;;;;;;;;;;;;5023999;28;19924;-62
2022/05/23 01:25:12;;;;;;;;;;;;;;;;;;5025541;28;19932;-63
2022/05/23 01:27:37;;;;;;;;;;;;;;;;;;5026358;28;19917;-63
2022/05/23 01:30:05;;;;;;;;;;;;;;;;;;5022145;28;19925;-63
2022/05/23 01:32:30;;;;;;;;;;;;;;;;;;5027627;28;19971;-62
2022/05/23 01:34:55;;;;;;;;;;;;;;;;;;5030250;28;20380;-61
2022/05/23 01:37:21;;;;;;;;;;;;;;;;;;5009421;28;19921;-63
2022/05/23 01:39:46;;;;;;;;;;;;;;;;;;5025031;28;20520;-62
2022/05/23 01:42:11;;;;;;;;;;;;;;;;;;5024277;28;19916;-62
2022/05/23 01:44:37;;;;;;;;;;;;;;;;;;5032644;28;19917;-62
2022/05/23 01:47:02;;;;;;;;;;;;;;;;;;5018678;28;19921;-62
2022/05/23 01:49:28;;;;;;;;;;;;;;;;;;5025315;28;19959;-64
2022/05/23 01:51:53;;;;;;;;;;;;;;;;;;5025742;28;20364;-64
2022/05/23 01:54:21;;;;;;;;;;;;;;;;;;5024019;28;19921;-63
2022/05/23 01:56:47;;;;;;;;;;;;;;;;;;5025231;28;19921;-64
2022/05/23 02:01:56;;;;;;;;;;;;;;;;;;5025981;28;19920;-62
2022/05/23 02:04:22;;;;;;;;;;;;;;;;;;5024675;28;19928;-62
2022/05/23 02:06:47;;;;;;;;;;;;;;;;;;5028073;28;20470;-63
2022/05/23 02:09:13;;;;;;;;;;;;;;;;;;5027110;28;20019;-63
2022/05/23 02:11:38;;;;;;;;;;;;;;;;;;5026139;28;19932;-62
2022/05/23 02:14:03;;;;;;;;;;;;;;;;;;5027323;28;20415;-61
2022/05/23 02:16:31;;;;;;;;;;;;;;;;;;5018245;28;19928;-62
2022/05/23 02:18:57;;;;;;;;;;;;;;;;;;5027047;28;19924;-62
2022/05/23 02:21:22;;;;;;;;;;;;;;;;;;5029292;28;19948;-63
2022/05/23 02:23:47;;;;;;;;;;;;;;;;;;5027424;28;19951;-63
2022/05/23 02:26:13;;;;;;;;;;;;;;;;;;5025619;28;19970;-63
2022/05/23 02:28:38;;;;;;;;;;;;;;;;;;5027169;28;19921;-62
2022/05/23 02:31:04;;;;;;;;;;;;;;;;;;5039407;28;19917;-62
2022/05/23 02:33:29;;;;;;;;;;;;;;;;;;5010674;28;20625;-62
2022/05/23 02:35:54;;;;;;;;;;;;;;;;;;5027028;28;19920;-62
2022/05/23 02:38:20;;;;;;;;;;;;;;;;;;5026271;28;19928;-61
2022/05/23 02:40:45;;;;;;;;;;;;;;;;;;5027845;28;19921;-62
2022/05/23 02:43:13;;;;;;;;;;;;;;;;;;5025213;28;19928;-62
2022/05/23 02:45:38;;;;;;;;;;;;;;;;;;5023594;28;19947;-62
2022/05/23 02:48:04;;;;;;;;;;;;;;;;;;5023494;28;19962;-62
2022/05/23 02:50:32;;;;;;;;;;;;;;;;;;5028941;28;19920;-62
2022/05/23 02:52:58;;;;;;;;;;;;;;;;;;5025161;28;20324;-62
2022/05/23 02:55:26;;;;;;;;;;;;;;;;;;5028127;28;20586;-61
2022/05/23 02:57:51;;;;;;;;;;;;;;;;;;5025058;28;19920;-61
2022/05/23 03:00:17;;;;;;;;;;;;;;;;;;5026480;28;19916;-62
2022/05/23 03:05:26;;;;;;;;;;;;;;;;;;5027152;28;19932;-62
2022/05/23 03:07:51;;;;;;;;;;;;;;;;;;5025632;28;19921;-62
2022/05/23 03:10:19;;;;;;;;;;;;;;;;;;5026287;28;19921;-62
2022/05/23 03:12:45;;;;;;;;;;;;;;;;;;5025168;28;19970;-62
2022/05/23 03:15:10;;;;;;;;;;;;;;;;;;5022956;28;19920;-61
2022/05/23 03:17:37;;;;;;;;;;;;;;;;;;5025434;28;19943;-61
2022/05/23 03:20:02;;;;;;;;;;;;;;;;;;5025717;28;19968;-62
2022/05/23 03:28:01;;;;;;;;;;;;;;;;;;5024330;28;20252;-61
2022/05/23 03:30:27;;;;;;;;;;;;;;;;;;5033159;28;19919;-61
2022/05/23 03:32:56;;;;;;;;;;;;;;;;;;5001934;28;20969;-62
2022/05/23 03:35:24;;;;;;;;;;;;;;;;;;5021248;28;19924;-62
2022/05/23 03:37:49;;;;;;;;;;;;;;;;;;5028995;28;20897;-62
2022/05/23 03:40:14;;;;;;;;;;;;;;;;;;5032425;28;20012;-62
2022/05/23 03:42:41;;;;;;;;;;;;;;;;;;5030150;28;19932;-63
2022/05/23 03:45:06;;;;;;;;;;;;;;;;;;5032812;28;19921;-62
2022/05/23 03:47:31;;;;;;;;;;;;;;;;;;5033000;28;19920;-62
2022/05/23 03:49:56;;;;;;;;;;;;;;;;;;5003970;28;20846;-61
2022/05/23 03:52:21;;;;;;;;;;;;;;;;;;5025175;28;19920;-61
2022/05/23 03:55:02;;;;;;;;;;;;;;;;;;5024662;28;19999;-62
2022/05/23 03:57:29;;;;;;;;;;;;;;;;;;5024984;28;20030;-62
2022/05/23 03:59:55;;;;;;;;;;;;;;;;;;5018632;28;19926;-60
2022/05/23 04:02:23;;;;;;;;;;;;;;;;;;5024833;28;20012;-61
2022/05/23 04:04:49;;;;;;;;;;;;;;;;;;5022698;28;19928;-61
2022/05/23 04:07:14;;;;;;;;;;;;;;;;;;5024910;28;19920;-62
2022/05/23 04:09:39;;;;;;;;;;;;;;;;;;5030148;28;19928;-62
2022/05/23 04:12:05;;;;;;;;;;;;;;;;;;5032205;28;19921;-61
2022/05/23 04:14:30;;;;;;;;;;;;;;;;;;5020305;28;19917;-61
2022/05/23 04:16:55;;;;;;;;;;;;;;;;;;5010773;28;20468;-61
2022/05/23 04:19:21;;;;;;;;;;;;;;;;;;5024427;28;20093;-61
2022/05/23 04:21:48;;;;;;;;;;;;;;;;;;5025553;28;19921;-61
2022/05/23 04:24:16;;;;;;;;;;;;;;;;;;5023462;28;19921;-60
2022/05/23 04:26:41;;;;;;;;;;;;;;;;;;5010100;28;19956;-61
2022/05/23 04:29:07;;;;;;;;;;;;;;;;;;5025613;28;20008;-62
2022/05/23 04:31:32;;;;;;;;;;;;;;;;;;5024976;28;19935;-61
2022/05/23 04:36:44;;;;;;;;;;;;;;;;;;5030660;28;19921;-61
2022/05/23 04:39:12;;;;;;;;;;;;;;;;;;5034752;28;19921;-62
2022/05/23 04:41:37;;;;;;;;;;;;;;;;;;5031813;28;20006;-61
2022/05/23 04:44:06;;;;;;;;;;;;;;;;;;5030328;28;19921;-62
2022/05/23 04:46:35;;;;;;;;;;;;;;;;;;5028589;28;20476;-62
2022/05/23 04:51:47;;;;;;;;;;;;;;;;;;5029229;28;19935;-61
2022/05/23 04:54:14;;;;;;;;;;;;;;;;;;5027772;28;19921;-62
2022/05/23 04:56:39;;;;;;;;;;;;;;;;;;5014899;28;19939;-61
2022/05/23 04:59:07;;;;;;;;;;;;;;;;;;5029604;28;19923;-63
2022/05/23 05:01:32;;;;;;;;;;;;;;;;;;5028787;28;20721;-61
2022/05/23 05:03:57;;;;;;;;;;;;;;;;;;5036735;28;19963;-63
2022/05/23 05:06:23;;;;;;;;;;;;;;;;;;5028445;28;19982;-63
2022/05/23 05:08:48;;;;;;;;;;;;;;;;;;5026391;28;19921;-63
2022/05/23 05:11:17;;;;;;;;;;;;;;;;;;5029104;28;19928;-63
2022/05/23 05:13:43;;;;;;;;;;;;;;;;;;5026836;28;19932;-63
2022/05/23 05:16:11;;;;;;;;;;;;;;;;;;5028899;28;21838;-61
2022/05/23 05:18:36;;;;;;;;;;;;;;;;;;5028867;28;19970;-63
2022/05/23 05:21:02;;;;;;;;;;;;;;;;;;5031073;28;19958;-64
2022/05/23 05:23:27;;;;;;;;;;;;;;;;;;5027427;28;20111;-63
2022/05/23 05:25:54;;;;;;;;;;;;;;;;;;5028244;28;19921;-63
2022/05/23 05:28:20;;;;;;;;;;;;;;;;;;5034190;28;20044;-61
2022/05/23 05:30:45;;;;;;;;;;;;;;;;;;5011938;28;19921;-60
2022/05/23 05:33:10;;;;;;;;;;;;;;;;;;5027726;28;20028;-61
2022/05/23 05:35:35;;;;;;;;;;;;;;;;;;5031026;28;20761;-60
2022/05/23 05:38:01;;;;;;;;;;;;;;;;;;5031104;28;19917;-62
2022/05/23 05:40:26;;;;;;;;;;;;;;;;;;5018295;28;19947;-63
2022/05/23 05:42:54;;;;;;;;;;;;;;;;;;5033665;28;19962;-61
2022/05/23 05:45:19;;;;;;;;;;;;;;;;;;5032275;28;19917;-62
2022/05/23 05:47:47;;;;;;;;;;;;;;;;;;5009374;28;20169;-62
2022/05/23 05:50:12;;;;;;;;;;;;;;;;;;5033349;28;20536;-62
2022/05/23 05:52:37;;;;;;;;;;;;;;;;;;5034090;28;19921;-61
2022/05/23 05:55:03;;;;;;;;;;;;;;;;;;5019489;28;19928;-62
2022/05/23 05:57:31;;;;;;;;;;;;;;;;;;5030965;28;20011;-61
2022/05/23 05:59:56;;;;;;;;;;;;;;;;;;5034562;28;19998;-62
2022/05/23 06:02:24;;;;;;;;;;;;;;;;;;5018983;28;20074;-61
2022/05/23 06:04:49;;;;;;;;;;;;;;;;;;5030373;28;20325;-60
2022/05/23 06:12:45;;;;;;;;;;;;;;;;;;5031559;28;19928;-62
2022/05/23 06:15:11;;;;;;;;;;;;;;;;;;5016028;28;19925;-62
2022/05/23 06:17:36;;;;;;;;;;;;;;;;;;5031059;28;19966;-63
2022/05/23 06:20:01;;;;;;;;;;;;;;;;;;5032424;28;19930;-63
2022/05/23 06:22:26;;;;;;;;;;;;;;;;;;5032524;28;19920;-63
2022/05/23 06:24:54;;;;;;;;;;;;;;;;;;5032680;28;20530;-63
2022/05/23 06:27:19;;;;;;;;;;;;;;;;;;5033049;28;19921;-63
2022/05/23 06:29:45;;;;;;;;;;;;;;;;;;5034147;28;19924;-62
2022/05/23 06:32:13;;;;;;;;;;;;;;;;;;5032941;28;19920;-63
2022/05/23 06:34:38;;;;;;;;;;;;;;;;;;5030518;28;19927;-62
2022/05/23 06:37:04;;;;;;;;;;;;;;;;;;5032340;28;19920;-61
2022/05/23 06:39:29;;;;;;;;;;;;;;;;;;5032011;28;19961;-63
2022/05/23 06:41:57;;;;;;;;;;;;;;;;;;5029637;28;20062;-62
2022/05/23 06:44:25;;;;;;;;;;;;;;;;;;5030542;28;19947;-62
2022/05/23 06:46:50;;;;;;;;;;;;;;;;;;5030630;28;20000;-62
2022/05/23 06:49:15;;;;;;;;;;;;;;;;;;5032628;28;20628;-61
2022/05/23 06:51:48;;;;;;;;;;;;;;;;;;5034419;28;19925;-63
2022/05/23 06:54:14;;;;;;;;;;;;;;;;;;5031585;28;19920;-63
2022/05/23 06:56:39;;;;;;;;;;;;;;;;;;5034331;28;19929;-63
2022/05/23 06:59:05;;;;;;;;;;;;;;;;;;5029291;28;20940;-63
2022/05/23 07:01:31;;;;;;;;;;;;;;;;;;5031751;28;19917;-62
2022/05/23 07:03:58;;;;;;;;;;;;;;;;;;5033331;28;20019;-63
2022/05/23 07:14:38;;;;;;;;;;;;;;;;;;5031422;28;19921;-64
2022/05/23 07:17:05;;;;;;;;;;;;;;;;;;5031132;28;20537;-64
2022/05/23 07:19:30;;;;;;;;;;;;;;;;;;5027284;28;19981;-64
2022/05/23 07:21:59;;;;;;;;;;;;;;;;;;5032982;28;19921;-64
2022/05/23 07:24:28;;;;;;;;;;;;;;;;;;5028830;28;20050;-64
2022/05/23 07:26:54;;;;;;;;;;;;;;;;;;5028767;28;20191;-64
2022/05/23 07:29:21;;;;;;;;;;;;;;;;;;5029894;28;20762;-64
2022/05/23 07:31:49;;;;;;;;;;;;;;;;;;5029984;28;19939;-65
2022/05/23 07:34:17;;;;;;;;;;;;;;;;;;5033549;28;19923;-65
2022/05/23 07:36:42;;;;;;;;;;;;;;;;;;5032035;28;19925;-64
2022/05/23 07:39:10;;;;;;;;;;;;;;;;;;5016604;28;19925;-65
2022/05/23 07:41:35;;;;;;;;;;;;;;;;;;5032136;28;19993;-64
2022/05/23 07:44:02;;;;;;;;;;;;;;;;;;5029517;28;19967;-64
2022/05/23 07:46:28;;;;;;;;;;;;;;;;;;5030583;28;19921;-62
2022/05/23 07:48:55;;;;;;;;;;;;;;;;;;5032724;28;19921;-64
2022/05/23 07:51:23;;;;;;;;;;;;;;;;;;5030018;28;19916;-63
2022/05/23 08:02:05;;;;;;;;;;;;;;;;;;5029890;28;20441;-63
2022/05/23 08:04:30;;;;;;;;;;;;;;;;;;5029903;28;19920;-65
2022/05/23 08:06:56;;;;;;;;;;;;;;;;;;5034326;28;19917;-65
2022/05/23 08:09:23;;;;;;;;;;;;;;;;;;5032101;28;19920;-65
2022/05/23 08:11:49;;;;;;;;;;;;;;;;;;5032573;28;19991;-65
2022/05/23 08:14:15;;;;;;;;;;;;;;;;;;5034061;28;20344;-64
2022/05/23 08:16:41;;;;;;;;;;;;;;;;;;5036578;28;19998;-63
2022/05/23 08:19:06;;;;;;;;;;;;;;;;;;5033442;28;20012;-62
2022/05/23 08:21:32;;;;;;;;;;;;;;;;;;5034762;28;19932;-64
2022/05/23 08:24:00;;;;;;;;;;;;;;;;;;5033551;28;19917;-65
2022/05/23 08:26:27;;;;;;;;;;;;;;;;;;5036469;28;19924;-65
2022/05/23 08:28:52;;;;;;;;;;;;;;;;;;5035658;28;19916;-64
2022/05/23 08:31:20;;;;;;;;;;;;;;;;;;5034689;28;19921;-64
2022/05/23 08:33:46;;;;;;;;;;;;;;;;;;5033127;28;19924;-63
2022/05/23 08:36:11;;;;;;;;;;;;;;;;;;5034526;28;19931;-65
2022/05/23 08:38:36;;;;;;;;;;;;;;;;;;5036036;28;20529;-64
2022/05/23 08:41:02;;;;;;;;;;;;;;;;;;5034875;28;19924;-63
2022/05/23 08:43:28;;;;;;;;;;;;;;;;;;5033541;28;20008;-64
2022/05/23 08:45:54;;;;;;;;;;;;;;;;;;5034056;28;19924;-63
2022/05/23 08:48:22;;;;;;;;;;;;;;;;;;5034515;28;20295;-64
2022/05/23 08:50:47;;;;;;;;;;;;;;;;;;5034806;28;19928;-63
2022/05/23 08:53:15;;;;;;;;;;;;;;;;;;5034690;28;19951;-64
2022/05/23 08:55:40;;;;;;;;;;;;;;;;;;5035827;28;20034;-64
2022/05/23 08:58:06;;;;;;;;;;;;;;;;;;5034278;28;19925;-61
2022/05/23 09:00:31;;;;;;;;;;;;;;;;;;5036915;28;19955;-62
2022/05/23 09:02:57;;;;;;;;;;;;;;;;;;5036606;28;20011;-62
2022/05/23 09:05:22;;;;;;;;;;;;;;;;;;5023035;28;19929;-64
2022/05/23 09:07:48;;;;;;;;;;;;;;;;;;5034551;28;19920;-62
2022/05/23 09:10:14;;;;;;;;;;;;;;;;;;5035674;28;19929;-65
2022/05/23 09:12:39;;;;;;;;;;;;;;;;;;5018632;28;19925;-62
2022/05/23 09:15:05;;;;;;;;;;;;;;;;;;5035226;28;19959;-63
2022/05/23 09:17:32;;;;;;;;;;;;;;;;;;5034906;28;19925;-63
2022/05/23 09:20:00;;;;;;;;;;;;;;;;;;5032665;28;19924;-64
2022/05/23 09:22:25;;;;;;;;;;;;;;;;;;5033743;28;19920;-65
2022/05/23 09:24:51;;;;;;;;;;;;;;;;;;5031291;28;19920;-63
2022/05/23 09:27:16;;;;;;;;;;;;;;;;;;5028735;28;19931;-61
2022/05/23 09:29:41;;;;;;;;;;;;;;;;;;5034187;28;19917;-62
2022/05/23 09:32:07;;;;;;;;;;;;;;;;;;5048703;28;19971;-63
2022/05/23 09:34:32;;;;;;;;;;;;;;;;;;5032028;28;19917;-63
2022/05/23 09:37:00;;;;;;;;;;;;;;;;;;5031468;28;21908;-62
2022/05/23 09:39:26;;;;;;;;;;;;;;;;;;5032622;28;20035;-63
2022/05/23 09:47:55;;;;;;;;;;;;;;;;;;5034294;28;21843;-64
2022/05/23 09:50:20;;;;;;;;;;;;;;;;;;5025690;28;19925;-64
2022/05/23 09:52:45;;;;;;;;;;;;;;;;;;5030855;28;20529;-64
2022/05/23 09:55:16;;;;;;;;;;;;;;;;;;5030449;28;19968;-62
2022/05/23 09:57:42;;;;;;;;;;;;;;;;;;5048630;28;19920;-62
2022/05/23 10:00:07;;;;;;;;;;;;;;;;;;5032125;28;19916;-62
2022/05/23 10:02:35;;;;;;;;;;;;;;;;;;5035217;28;19925;-62
2022/05/23 10:05:03;;;;;;;;;;;;;;;;;;5032210;28;19982;-63
2022/05/23 10:07:29;;;;;;;;;;;;;;;;;;5032715;28;19943;-63
2022/05/23 10:09:54;;;;;;;;;;;;;;;;;;5036195;28;20464;-63
2022/05/23 10:12:20;;;;;;;;;;;;;;;;;;5030459;28;19931;-63
2022/05/23 10:14:45;;;;;;;;;;;;;;;;;;5009711;28;20482;-63
2022/05/23 10:17:13;;;;;;;;;;;;;;;;;;5018367;28;19959;-62
2022/05/23 10:19:41;;;;;;;;;;;;;;;;;;5031463;28;20036;-63
2022/05/23 10:22:06;;;;;;;;;;;;;;;;;;5033384;28;19920;-63
2022/05/23 10:24:32;;;;;;;;;;;;;;;;;;5032850;28;19924;-64
2022/05/23 10:26:59;;;;;;;;;;;;;;;;;;5030620;28;19924;-62
2022/05/23 10:29:25;;;;;;;;;;;;;;;;;;5033194;28;20318;-63
2022/05/23 10:31:52;;;;;;;;;;;;;;;;;;5034012;28;19921;-65
2022/05/23 10:34:20;;;;;;;;;;;;;;;;;;5032378;28;20427;-63
2022/05/23 10:36:45;;;;;;;;;;;;;;;;;;5017253;28;20039;-61
2022/05/23 10:42:07;;;;;;;;;;;;;;;;;;5033534;28;19928;-64
2022/05/23 10:44:32;;;;;;;;;;;;;;;;;;5034344;28;19916;-62
2022/05/23 10:47:00;;;;;;;;;;;;;;;;;;5033587;28;19974;-61
2022/05/23 10:49:28;;;;;;;;;;;;;;;;;;5016402;28;19924;-62
2022/05/23 10:51:54;;;;;;;;;;;;;;;;;;5031492;28;19942;-65
2022/05/23 10:54:22;;;;;;;;;;;;;;;;;;5033459;28;20459;-63
2022/05/23 10:56:48;;;;;;;;;;;;;;;;;;5016454;28;19931;-63
2022/05/23 10:59:16;;;;;;;;;;;;;;;;;;5008622;28;19917;-62
2022/05/23 11:01:43;;;;;;;;;;;;;;;;;;5029713;28;20708;-64
2022/05/23 11:04:09;;;;;;;;;;;;;;;;;;5006505;28;19924;-63
2022/05/23 11:06:34;;;;;;;;;;;;;;;;;;5034109;28;19928;-65
2022/05/23 11:09:00;;;;;;;;;;;;;;;;;;5033899;28;19933;-65
2022/05/23 11:11:25;;;;;;;;;;;;;;;;;;5035005;28;20851;-63
2022/05/23 11:13:51;;;;;;;;;;;;;;;;;;5030081;28;19917;-64
2022/05/23 11:16:17;;;;;;;;;;;;;;;;;;5032394;28;19927;-62
2022/05/23 11:18:42;;;;;;;;;;;;;;;;;;5029611;28;19962;-62
2022/05/23 11:21:10;;;;;;;;;;;;;;;;;;5028757;28;19917;-62
2022/05/23 11:23:38;;;;;;;;;;;;;;;;;;5032467;28;21117;-62
2022/05/23 11:26:18;;;;;;;;;;;;;;;;;;5031488;28;19925;-61
2022/05/23 11:34:14;;;;;;;;;;;;;;;;;;5032710;28;20599;-62
2022/05/23 11:39:23;;;;;;;;;;;;;;;;;;5030518;28;19927;-62
2022/05/23 11:41:51;;;;;;;;;;;;;;;;;;5031354;28;19921;-63
2022/05/23 11:44:16;;;;;;;;;;;;;;;;;;5030187;28;19932;-63
2022/05/23 11:46:46;;;;;;;;;;;;;;;;;;5030098;28;19924;-63
2022/05/23 11:49:11;;;;;;;;;;;;;;;;;;5013870;28;20651;-60
2022/05/23 11:51:41;;;;;;;;;;;;;;;;;;5031194;28;19939;-61
2022/05/23 11:54:08;;;;;;;;;;;;;;;;;;5029876;28;19923;-63
2022/05/23 11:56:38;;;;;;;;;;;;;;;;;;5029983;28;20206;-62
2022/05/23 11:59:04;;;;;;;;;;;;;;;;;;5030799;28;19921;-62
2022/05/23 12:01:32;;;;;;;;;;;;;;;;;;5033426;28;19916;-61
2022/05/23 12:03:58;;;;;;;;;;;;;;;;;;5030383;28;20737;-61
2022/05/23 12:06:23;;;;;;;;;;;;;;;;;;5045441;28;19921;-61
2022/05/23 12:08:48;;;;;;;;;;;;;;;;;;5030814;28;20498;-63
2022/05/23 12:11:14;;;;;;;;;;;;;;;;;;5028827;28;20354;-63
2022/05/23 12:13:48;;;;;;;;;;;;;;;;;;5031055;28;19925;-64
2022/05/23 12:16:13;;;;;;;;;;;;;;;;;;5016626;28;19974;-62
2022/05/23 12:18:39;;;;;;;;;;;;;;;;;;5033147;28;19974;-63
2022/05/23 12:21:06;;;;;;;;;;;;;;;;;;5030384;28;20051;-60
2022/05/23 12:23:31;;;;;;;;;;;;;;;;;;5030708;28;19921;-61
2022/05/23 12:25:56;;;;;;;;;;;;;;;;;;5032284;28;19921;-63
2022/05/23 12:28:21;;;;;;;;;;;;;;;;;;5030553;28;19947;-63
2022/05/23 12:30:47;;;;;;;;;;;;;;;;;;5031993;28;19917;-61
2022/05/23 12:33:15;;;;;;;;;;;;;;;;;;5015671;28;19935;-63
2022/05/23 12:35:44;;;;;;;;;;;;;;;;;;5029366;28;20612;-62
2022/05/23 12:38:14;;;;;;;;;;;;;;;;;;5033824;28;19917;-63
2022/05/23 12:40:39;;;;;;;;;;;;;;;;;;5030563;28;19939;-62
2022/05/23 12:43:05;;;;;;;;;;;;;;;;;;5033284;28;20517;-63
2022/05/23 12:45:32;;;;;;;;;;;;;;;;;;5030697;28;19925;-63
2022/05/23 12:48:00;;;;;;;;;;;;;;;;;;5030220;28;19916;-65
2022/05/23 12:50:28;;;;;;;;;;;;;;;;;;5035901;28;20006;-64
2022/05/23 12:52:53;;;;;;;;;;;;;;;;;;5027305;28;20020;-65
2022/05/23 12:55:19;;;;;;;;;;;;;;;;;;5025671;28;20891;-63
2022/05/23 12:57:45;;;;;;;;;;;;;;;;;;5023718;28;19921;-62
2022/05/23 13:00:13;;;;;;;;;;;;;;;;;;5028000;28;20532;-63
2022/05/23 13:02:41;;;;;;;;;;;;;;;;;;5028422;28;19986;-65
2022/05/23 13:05:12;;;;;;;;;;;;;;;;;;5023018;28;20117;-64
2022/05/23 13:07:38;;;;;;;;;;;;;;;;;;5031953;28;19931;-64
2022/05/23 13:10:05;;;;;;;;;;;;;;;;;;5036695;28;19920;-65
2022/05/23 13:12:34;;;;;;;;;;;;;;;;;;5028680;28;19924;-65
2022/05/23 13:15:04;;;;;;;;;;;;;;;;;;5032943;28;20557;-65
2022/05/23 13:17:29;;;;;;;;;;;;;;;;;;5011750;28;19924;-66
2022/05/23 13:22:57;;;;;;;;;;;;;;;;;;4967004;28;20281;-65
2022/05/23 13:25:23;;;;;;;;;;;;;;;;;;5006745;28;19921;-65
2022/05/23 13:27:48;;;;;;;;;;;;;;;;;;5006562;28;19924;-63
2022/05/23 13:30:14;;;;;;;;;;;;;;;;;;5028996;28;19983;-65
2022/05/23 13:32:42;;;;;;;;;;;;;;;;;;5014320;28;19916;-61
2022/05/23 13:35:10;;;;;;;;;;;;;;;;;;5017097;28;19917;-65
2022/05/23 13:37:38;;;;;;;;;;;;;;;;;;5031202;28;19916;-64
2022/05/23 13:40:06;;;;;;;;;;;;;;;;;;5041432;28;19975;-66
2022/05/23 13:42:31;;;;;;;;;;;;;;;;;;5030801;28;19921;-66
2022/05/23 13:45:00;;;;;;;;;;;;;;;;;;5033032;28;19917;-66
2022/05/23 13:47:25;;;;;;;;;;;;;;;;;;5034077;28;20371;-66
2022/05/23 13:49:51;;;;;;;;;;;;;;;;;;5018779;28;19921;-65
2022/05/23 13:52:16;;;;;;;;;;;;;;;;;;5015328;28;19921;-67
2022/05/23 13:54:41;;;;;;;;;;;;;;;;;;5034333;28;19921;-67
2022/05/23 13:57:09;;;;;;;;;;;;;;;;;;5030752;28;19921;-66
2022/05/23 13:59:38;;;;;;;;;;;;;;;;;;5032397;28;19939;-64
2022/05/23 14:02:06;;;;;;;;;;;;;;;;;;5017935;28;19917;-64
2022/05/23 14:04:31;;;;;;;;;;;;;;;;;;5031739;28;20407;-64
2022/05/23 14:06:59;;;;;;;;;;;;;;;;;;5018990;28;19924;-65
2022/05/23 14:09:25;;;;;;;;;;;;;;;;;;5017894;28;19962;-65
2022/05/23 14:11:51;;;;;;;;;;;;;;;;;;5032177;28;19917;-66
2022/05/23 14:14:17;;;;;;;;;;;;;;;;;;5017878;28;19920;-65
2022/05/23 14:16:42;;;;;;;;;;;;;;;;;;5016929;28;19939;-66
2022/05/23 14:19:07;;;;;;;;;;;;;;;;;;5017929;28;19921;-67
2022/05/23 14:21:35;;;;;;;;;;;;;;;;;;5008757;28;19971;-67
2022/05/23 14:24:01;;;;;;;;;;;;;;;;;;5030929;28;19916;-68
2022/05/23 14:26:26;;;;;;;;;;;;;;;;;;5033756;28;19959;-65
2022/05/23 14:28:52;;;;;;;;;;;;;;;;;;5032454;28;19924;-66
2022/05/23 14:31:20;;;;;;;;;;;;;;;;;;5032833;28;20010;-66
2022/05/23 14:33:48;;;;;;;;;;;;;;;;;;5033802;28;19925;-66
2022/05/23 14:36:13;;;;;;;;;;;;;;;;;;5036074;28;19924;-66
2022/05/23 14:38:41;;;;;;;;;;;;;;;;;;5035003;28;20344;-67
2022/05/23 14:41:09;;;;;;;;;;;;;;;;;;5032466;28;19921;-67
2022/05/23 14:43:35;;;;;;;;;;;;;;;;;;5033785;28;19920;-66
2022/05/23 14:46:00;;;;;;;;;;;;;;;;;;5008434;28;19928;-67
2022/05/23 14:48:30;;;;;;;;;;;;;;;;;;5033255;28;19916;-67
2022/05/23 14:50:55;;;;;;;;;;;;;;;;;;5025213;28;19990;-67
2022/05/23 14:56:09;;;;;;;;;;;;;;;;;;5030607;28;19925;-66
2022/05/23 15:01:21;;;;;;;;;;;;;;;;;;5032179;28;19929;-68
2022/05/23 15:03:46;;;;;;;;;;;;;;;;;;5007776;28;19970;-65
2022/05/23 15:06:12;;;;;;;;;;;;;;;;;;5030831;28;19924;-65
2022/05/23 15:08:40;;;;;;;;;;;;;;;;;;5029413;28;20375;-65
2022/05/23 15:11:05;;;;;;;;;;;;;;;;;;5023677;28;19921;-62
2022/05/23 15:13:31;;;;;;;;;;;;;;;;;;5030120;28;19916;-63
2022/05/23 15:16:02;;;;;;;;;;;;;;;;;;5024962;28;19924;-66
2022/05/23 15:18:28;;;;;;;;;;;;;;;;;;5024013;28;19920;-65
2022/05/23 15:20:55;;;;;;;;;;;;;;;;;;5025850;28;20039;-65
2022/05/23 15:23:21;;;;;;;;;;;;;;;;;;5026259;28;21865;-64
2022/05/23 15:25:49;;;;;;;;;;;;;;;;;;5022708;28;20376;-65
2022/05/23 15:28:17;;;;;;;;;;;;;;;;;;5028172;28;19917;-66
2022/05/23 15:30:42;;;;;;;;;;;;;;;;;;5027878;28;20772;-65
2022/05/23 15:33:07;;;;;;;;;;;;;;;;;;5027546;28;19916;-66
2022/05/23 15:35:33;;;;;;;;;;;;;;;;;;5024706;28;20636;-65
2022/05/23 15:38:01;;;;;;;;;;;;;;;;;;5026399;28;19955;-65
2022/05/23 15:40:28;;;;;;;;;;;;;;;;;;5024084;28;19920;-60
2022/05/23 15:42:54;;;;;;;;;;;;;;;;;;5009812;28;19992;-66
2022/05/23 15:45:19;;;;;;;;;;;;;;;;;;5040652;28;19933;-65
2022/05/23 15:47:44;;;;;;;;;;;;;;;;;;5027445;28;19928;-65
2022/05/23 15:50:12;;;;;;;;;;;;;;;;;;5025877;28;20008;-66
2022/05/23 15:52:40;;;;;;;;;;;;;;;;;;5030349;28;19923;-65
2022/05/23 15:55:05;;;;;;;;;;;;;;;;;;5011397;28;19920;-67
2022/05/23 15:57:33;;;;;;;;;;;;;;;;;;5026901;28;20015;-66
2022/05/23 16:00:03;;;;;;;;;;;;;;;;;;5032045;28;19936;-67
2022/05/23 16:02:29;;;;;;;;;;;;;;;;;;5036606;28;19928;-66
2022/05/23 16:04:54;;;;;;;;;;;;;;;;;;5029677;28;19939;-66
2022/05/23 16:07:19;;;;;;;;;;;;;;;;;;5031975;28;19940;-67
2022/05/23 16:09:48;;;;;;;;;;;;;;;;;;5029652;28;19916;-66
2022/05/23 16:12:19;;;;;;;;;;;;;;;;;;5029808;28;19921;-67
2022/05/23 16:14:46;;;;;;;;;;;;;;;;;;5030443;28;20174;-67
2022/05/23 16:17:11;;;;;;;;;;;;;;;;;;5030396;28;19928;-66
2022/05/23 16:19:43;;;;;;;;;;;;;;;;;;5029075;28;20012;-65
2022/05/23 16:22:10;;;;;;;;;;;;;;;;;;5030421;28;19974;-65
2022/05/23 16:24:39;;;;;;;;;;;;;;;;;;5028351;28;19931;-65
2022/05/23 16:27:09;;;;;;;;;;;;;;;;;;5026405;28;20740;-65
2022/05/23 16:29:34;;;;;;;;;;;;;;;;;;5031970;28;19962;-66
2022/05/23 16:32:00;;;;;;;;;;;;;;;;;;5030842;28;19943;-66
2022/05/23 16:37:12;;;;;;;;;;;;;;;;;;5035232;28;19932;-67
2022/05/23 16:39:37;;;;;;;;;;;;;;;;;;5034120;28;19917;-67
2022/05/23 16:42:08;;;;;;;;;;;;;;;;;;5031669;28;20134;-67
2022/05/23 16:44:33;;;;;;;;;;;;;;;;;;5030712;28;19921;-67
2022/05/23 16:46:58;;;;;;;;;;;;;;;;;;5031665;28;19928;-66
2022/05/23 16:49:28;;;;;;;;;;;;;;;;;;5029443;28;19917;-64
2022/05/23 16:51:53;;;;;;;;;;;;;;;;;;5009293;28;19924;-64
2022/05/23 16:54:19;;;;;;;;;;;;;;;;;;5033744;28;20448;-67
2022/05/23 16:56:44;;;;;;;;;;;;;;;;;;5032886;28;20890;-66
2022/05/23 16:59:10;;;;;;;;;;;;;;;;;;5033888;28;19921;-64
2022/05/23 17:01:35;;;;;;;;;;;;;;;;;;5034126;28;19948;-63
2022/05/23 17:04:03;;;;;;;;;;;;;;;;;;5031320;28;20331;-64
2022/05/23 17:06:29;;;;;;;;;;;;;;;;;;5030702;28;20045;-63
2022/05/23 17:08:55;;;;;;;;;;;;;;;;;;5032667;28;20590;-64
2022/05/23 17:11:22;;;;;;;;;;;;;;;;;;5033150;28;19920;-64
2022/05/23 17:13:48;;;;;;;;;;;;;;;;;;5036109;28;19974;-63
2022/05/23 17:16:15;;;;;;;;;;;;;;;;;;5034484;28;20011;-63
2022/05/23 17:18:41;;;;;;;;;;;;;;;;;;5033831;28;20307;-63
2022/05/23 17:21:06;;;;;;;;;;;;;;;;;;5048354;28;19975;-60
2022/05/23 17:23:32;;;;;;;;;;;;;;;;;;5033657;28;20498;-62
2022/05/23 17:25:59;;;;;;;;;;;;;;;;;;5032115;28;19939;-61
2022/05/23 17:28:24;;;;;;;;;;;;;;;;;;5016456;28;20559;-58
2022/05/23 17:30:51;;;;;;;;;;;;;;;;;;5032423;28;19951;-57
2022/05/23 17:33:16;;;;;;;;;;;;;;;;;;5034288;28;20026;-60
2022/05/23 17:35:44;;;;;;;;;;;;;;;;;;5034861;28;19921;-57
2022/05/23 17:38:09;;;;;;;;;;;;;;;;;;5031778;28;19924;-58
2022/05/23 17:40:35;;;;;;;;;;;;;;;;;;5035306;28;19921;-57
2022/05/23 17:43:00;;;;;;;;;;;;;;;;;;5032139;28;19928;-58
2022/05/23 17:45:26;;;;;;;;;;;;;;;;;;5035185;28;20013;-59
2022/05/23 17:47:53;;;;;;;;;;;;;;;;;;5033643;28;20245;-65
2022/05/23 17:50:19;;;;;;;;;;;;;;;;;;5014640;28;19939;-59
2022/05/23 17:52:48;;;;;;;;;;;;;;;;;;5032813;28;20464;-60